createdAt,value
2018-09-27T00:01:40.461Z,2.30
2018-09-27T00:04:11.722Z,2.20
2018-09-27T00:06:42.676Z,2.37
2018-09-27T00:09:13.968Z,2.50
2018-09-27T00:11:45.080Z,1.97
2018-09-27T00:14:16.697Z,2.60
2018-09-27T00:16:47.778Z,2.10
2018-09-27T00:19:19.336Z,2.50
2018-09-27T00:21:50.450Z,2.17
2018-09-27T00:24:21.326Z,2.20
2018-09-27T00:26:52.060Z,2.33
2018-09-27T00:29:23.472Z,2.40
2018-09-27T00:31:54.485Z,3.13
2018-09-27T00:34:25.285Z,2.17
2018-09-27T00:36:56.066Z,2.40
2018-09-27T00:39:27.017Z,2.70
2018-09-27T00:41:58.085Z,2.73
2018-09-27T00:44:29.325Z,3.10
2018-09-27T00:46:59.836Z,3.20
2018-09-27T00:49:30.696Z,2.83
2018-09-27T00:52:01.676Z,2.53
2018-09-27T00:54:33.032Z,3.00
2018-09-27T00:57:04.111Z,3.17
2018-09-27T00:59:35.341Z,3.47
2018-09-27T01:02:06.639Z,3.37
2018-09-27T01:04:37.304Z,2.87
2018-09-27T01:07:08.249Z,3.10
2018-09-27T01:09:38.570Z,2.90
2018-09-27T01:12:09.540Z,2.80
2018-09-27T01:14:40.617Z,3.07
2018-09-27T01:17:13.089Z,3.13
2018-09-27T01:19:44.112Z,3.23
2018-09-27T01:22:15.566Z,3.27
2018-09-27T01:24:46.846Z,3.30
2018-09-27T01:27:18.800Z,3.40
2018-09-27T01:29:49.645Z,3.73
2018-09-27T01:32:20.788Z,3.10
2018-09-27T01:34:51.632Z,3.13
2018-09-27T01:37:23.530Z,3.67
2018-09-27T01:39:54.491Z,3.80
2018-09-27T01:42:24.884Z,3.70
2018-09-27T01:44:56.457Z,3.90
2018-09-27T01:47:27.437Z,3.50
2018-09-27T01:49:58.173Z,3.47
2018-09-27T01:52:28.678Z,3.37
2018-09-27T01:54:59.980Z,3.67
2018-09-27T01:57:31.012Z,3.73
2018-09-27T02:00:02.118Z,3.80
2018-09-27T02:02:32.707Z,3.83
2018-09-27T02:05:04.008Z,3.93
2018-09-27T02:07:34.765Z,3.87
2018-09-27T02:10:05.885Z,3.80
2018-09-27T02:12:37.080Z,3.40
2018-09-27T02:15:08.209Z,3.77
2018-09-27T02:17:39.560Z,3.77
2018-09-27T02:20:10.385Z,3.50
2018-09-27T02:22:41.515Z,3.80
2018-09-27T02:25:12.437Z,8.33
2018-09-27T02:27:43.663Z,5.83
2018-09-27T02:30:14.591Z,5.93
2018-09-27T02:32:45.348Z,4.17
2018-09-27T02:35:16.203Z,5.30
2018-09-27T02:37:47.542Z,4.57
2018-09-27T02:40:18.998Z,4.57
2018-09-27T02:42:49.699Z,4.07
2018-09-27T02:45:20.936Z,3.70
2018-09-27T02:47:52.389Z,3.97
2018-09-27T02:50:23.884Z,3.73
2018-09-27T02:52:55.269Z,3.53
2018-09-27T02:55:27.031Z,3.33
2018-09-27T02:57:58.688Z,3.53
2018-09-27T03:00:30.079Z,2.77
2018-09-27T03:03:01.155Z,3.30
2018-09-27T03:05:32.783Z,3.20
2018-09-27T03:08:04.199Z,3.30
2018-09-27T03:10:34.885Z,2.77
2018-09-27T03:13:09.710Z,3.17
2018-09-27T03:15:40.774Z,3.33
2018-09-27T03:18:12.254Z,3.40
2018-09-27T03:20:44.059Z,3.20
2018-09-27T03:23:15.378Z,2.93
2018-09-27T03:25:47.226Z,2.70
2018-09-27T03:28:18.882Z,3.00
2018-09-27T03:30:50.723Z,2.80
2018-09-27T03:33:22.570Z,2.90
2018-09-27T03:35:54.565Z,2.67
2018-09-27T03:38:26.668Z,2.93
2018-09-27T03:40:58.023Z,3.03
2018-09-27T03:43:30.188Z,2.93
2018-09-27T03:46:02.180Z,2.87
2018-09-27T03:48:34.327Z,2.60
2018-09-27T03:51:08.241Z,3.03
2018-09-27T03:53:41.097Z,2.97
2018-09-27T03:56:13.887Z,3.13
2018-09-27T03:58:46.471Z,3.57
2018-09-27T04:01:18.700Z,3.43
2018-09-27T04:03:49.868Z,3.37
2018-09-27T04:06:20.575Z,3.50
2018-09-27T04:08:51.477Z,3.77
2018-09-27T04:11:22.358Z,4.50
2018-09-27T04:13:53.021Z,4.00
2018-09-27T04:16:23.922Z,3.77
2018-09-27T04:18:55.342Z,3.97
2018-09-27T04:21:26.513Z,4.17
2018-09-27T04:23:58.308Z,4.50
2018-09-27T04:26:29.143Z,3.93
2018-09-27T04:29:00.016Z,4.10
2018-09-27T04:31:30.762Z,4.07
2018-09-27T04:34:02.608Z,4.33
2018-09-27T04:36:34.251Z,4.33
2018-09-27T04:39:07.611Z,4.90
2018-09-27T04:41:38.588Z,5.33
2018-09-27T04:44:09.891Z,5.03
2018-09-27T04:46:40.775Z,5.77
2018-09-27T04:49:11.662Z,5.43
2018-09-27T04:51:42.940Z,5.33
2018-09-27T04:54:13.729Z,4.20
2018-09-27T04:56:45.474Z,3.60
2018-09-27T04:59:16.581Z,3.90
2018-09-27T05:01:47.714Z,3.67
2018-09-27T05:04:18.503Z,3.80
2018-09-27T05:06:49.960Z,4.00
2018-09-27T05:09:21.041Z,4.00
2018-09-27T05:11:51.906Z,3.90
2018-09-27T05:14:23.283Z,4.07
2018-09-27T05:16:54.757Z,4.47
2018-09-27T05:19:24.760Z,4.17
2018-09-27T05:21:54.950Z,4.73
2018-09-27T05:24:25.004Z,4.53
2018-09-27T05:26:55.020Z,4.07
2018-09-27T05:29:25.225Z,3.70
2018-09-27T05:31:55.393Z,4.07
2018-09-27T05:34:25.721Z,3.67
2018-09-27T05:36:55.768Z,4.30
2018-09-27T05:39:25.707Z,3.60
2018-09-27T05:41:55.921Z,3.83
2018-09-27T05:44:26.149Z,3.57
2018-09-27T05:46:56.318Z,3.17
2018-09-27T05:49:26.180Z,3.13
2018-09-27T05:51:56.297Z,3.27
2018-09-27T05:54:26.413Z,3.67
2018-09-27T05:56:56.601Z,3.30
2018-09-27T05:59:26.622Z,3.50
2018-09-27T06:01:56.670Z,3.40
2018-09-27T06:04:26.933Z,3.87
2018-09-27T06:06:57.701Z,4.37
2018-09-27T06:09:27.733Z,3.60
2018-09-27T06:12:00.067Z,3.30
2018-09-27T06:14:30.228Z,3.40
2018-09-27T06:17:00.594Z,3.40
2018-09-27T06:19:30.496Z,3.70
2018-09-27T06:22:01.276Z,4.63
2018-09-27T06:24:31.416Z,5.93
2018-09-27T06:27:01.844Z,3.37
2018-09-27T06:29:32.037Z,3.33
2018-09-27T06:32:02.381Z,4.70
2018-09-27T06:34:32.654Z,3.17
2018-09-27T06:37:02.630Z,2.83
2018-09-27T06:39:32.533Z,3.27
2018-09-27T06:42:03.201Z,7.33
2018-09-27T06:44:33.466Z,3.53
2018-09-27T06:47:04.222Z,2.97
2018-09-27T06:49:35.075Z,3.77
2018-09-27T06:52:06.070Z,3.03
2018-09-27T06:54:36.553Z,4.40
2018-09-27T06:57:07.871Z,4.13
2018-09-27T06:59:37.696Z,3.20
2018-09-27T07:02:07.729Z,2.70
2018-09-27T07:04:37.616Z,2.67
2018-09-27T07:07:08.160Z,2.30
2018-09-27T07:09:38.376Z,3.20
2018-09-27T07:12:08.701Z,3.33
2018-09-27T07:14:39.935Z,3.67
2018-09-27T07:17:10.119Z,2.53
2018-09-27T07:19:39.956Z,3.00
2018-09-27T07:22:09.910Z,2.73
2018-09-27T07:24:39.852Z,2.57
2018-09-27T07:27:09.985Z,2.77
2018-09-27T07:29:40.003Z,2.90
2018-09-27T07:32:10.273Z,2.53
2018-09-27T07:34:41.681Z,2.20
2018-09-27T07:37:12.221Z,2.30
2018-09-27T07:39:42.075Z,2.17
2018-09-27T07:42:12.528Z,2.40
2018-09-27T07:44:42.552Z,2.37
2018-09-27T07:47:13.403Z,2.77
2018-09-27T07:49:43.768Z,2.60
2018-09-27T07:52:13.991Z,3.23
2018-09-27T07:54:44.522Z,2.87
2018-09-27T07:57:14.725Z,2.63
2018-09-27T07:59:45.310Z,2.50
2018-09-27T08:02:15.226Z,2.47
2018-09-27T08:04:45.353Z,3.83
2018-09-27T08:07:15.327Z,2.27
2018-09-27T08:09:45.379Z,1.83
2018-09-27T08:12:15.682Z,3.10
2018-09-27T08:14:45.753Z,2.07
2018-09-27T08:17:16.662Z,2.30
2018-09-27T08:19:47.393Z,2.30
2018-09-27T08:22:17.821Z,2.33
2018-09-27T08:24:48.268Z,2.50
2018-09-27T08:27:18.983Z,2.20
2018-09-27T08:29:49.064Z,2.13
2018-09-27T08:32:19.290Z,1.90
2018-09-27T08:34:49.399Z,2.00
2018-09-27T08:37:19.911Z,2.00
2018-09-27T08:39:50.165Z,2.10
2018-09-27T08:42:20.367Z,2.17
2018-09-27T08:44:50.816Z,1.87
2018-09-27T08:47:22.065Z,1.97
2018-09-27T08:49:52.407Z,1.90
2018-09-27T08:52:22.747Z,2.40
2018-09-27T08:54:53.087Z,2.13
2018-09-27T08:57:24.023Z,1.90
2018-09-27T08:59:54.063Z,1.80
2018-09-27T09:02:24.220Z,1.97
2018-09-27T09:04:54.607Z,1.70
2018-09-27T09:07:25.050Z,1.87
2018-09-27T09:09:55.440Z,2.13
2018-09-27T09:12:26.609Z,1.80
2018-09-27T09:14:56.954Z,1.90
2018-09-27T09:17:27.131Z,2.07
2018-09-27T09:19:57.215Z,1.87
2018-09-27T09:22:27.424Z,2.00
2018-09-27T09:24:57.885Z,1.97
2018-09-27T09:27:28.234Z,1.83
2018-09-27T09:29:58.551Z,1.87
2018-09-27T09:32:28.692Z,1.70
2018-09-27T09:34:59.024Z,1.70
2018-09-27T09:37:29.179Z,1.63
2018-09-27T09:39:59.377Z,2.10
2018-09-27T09:42:29.725Z,2.00
2018-09-27T09:45:01.215Z,2.00
2018-09-27T09:47:31.448Z,1.93
2018-09-27T09:50:01.708Z,1.87
2018-09-27T09:52:32.043Z,1.70
2018-09-27T09:55:02.420Z,1.80
2018-09-27T09:57:32.855Z,1.50
2018-09-27T10:00:03.095Z,1.50
2018-09-27T10:02:33.397Z,1.87
2018-09-27T10:05:03.840Z,1.60
2018-09-27T10:07:34.092Z,1.83
2018-09-27T10:10:04.911Z,2.63
2018-09-27T10:12:35.445Z,2.23
2018-09-27T10:15:06.132Z,1.83
2018-09-27T10:17:36.595Z,2.00
2018-09-27T10:20:06.812Z,2.00
2018-09-27T10:22:37.116Z,2.23
2018-09-27T10:25:07.516Z,1.90
2018-09-27T10:27:38.897Z,2.07
2018-09-27T10:30:09.206Z,1.90
2018-09-27T10:32:39.470Z,1.90
2018-09-27T10:35:09.687Z,1.83
2018-09-27T10:37:40.089Z,1.70
2018-09-27T10:40:10.182Z,1.70
2018-09-27T10:42:40.316Z,2.00
2018-09-27T10:45:10.670Z,1.97
2018-09-27T10:47:41.183Z,2.00
2018-09-27T10:50:11.164Z,2.00
2018-09-27T10:52:41.419Z,1.83
2018-09-27T10:55:11.841Z,1.90
2018-09-27T10:57:42.094Z,1.87
2018-09-27T11:00:16.324Z,2.03
2018-09-27T11:02:46.570Z,1.63
2018-09-27T11:05:17.066Z,2.50
2018-09-27T11:07:47.535Z,2.20
2018-09-27T11:10:17.887Z,1.80
2018-09-27T11:12:48.284Z,1.80
2018-09-27T11:15:18.637Z,1.73
2018-09-27T11:17:48.853Z,2.10
2018-09-27T11:20:18.965Z,1.83
2018-09-27T11:22:49.089Z,1.90
2018-09-27T11:25:19.194Z,1.97
2018-09-27T11:27:49.230Z,2.00
2018-09-27T11:30:24.382Z,2.30
2018-09-27T11:32:54.450Z,2.07
2018-09-27T11:35:24.460Z,2.10
2018-09-27T11:37:54.505Z,1.90
2018-09-27T11:40:24.327Z,2.40
2018-09-27T11:42:54.190Z,2.13
2018-09-27T11:45:24.106Z,2.10
2018-09-27T11:47:53.984Z,1.90
2018-09-27T11:50:23.880Z,1.77
2018-09-27T11:52:53.669Z,1.60
2018-09-27T11:55:23.676Z,1.87
2018-09-27T11:57:53.482Z,3.43
2018-09-27T12:00:23.470Z,1.70
2018-09-27T12:02:53.248Z,2.17
2018-09-27T12:05:23.311Z,1.73
2018-09-27T12:07:53.768Z,1.90
2018-09-27T12:10:23.792Z,1.93
2018-09-27T12:12:54.136Z,1.83
2018-09-27T12:15:24.170Z,1.80
2018-09-27T12:17:54.142Z,1.77
2018-09-27T12:20:23.954Z,1.93
2018-09-27T12:22:53.841Z,1.70
2018-09-27T12:25:23.925Z,1.90
2018-09-27T12:27:53.923Z,1.90
2018-09-27T12:30:24.164Z,1.73
2018-09-27T12:32:54.180Z,1.93
2018-09-27T12:35:24.142Z,1.80
2018-09-27T12:37:54.045Z,1.93
2018-09-27T12:40:23.911Z,1.90
2018-09-27T12:42:53.718Z,2.10
2018-09-27T12:45:23.983Z,1.60
2018-09-27T12:47:53.987Z,1.93
2018-09-27T12:50:23.862Z,2.10
2018-09-27T12:52:53.843Z,1.83
2018-09-27T12:55:23.859Z,2.20
2018-09-27T12:57:53.748Z,2.93
2018-09-27T13:00:23.755Z,2.10
2018-09-27T13:02:53.663Z,2.27
2018-09-27T13:05:23.595Z,2.80
2018-09-27T13:07:53.901Z,1.90
2018-09-27T13:10:24.632Z,2.00
2018-09-27T13:12:54.460Z,1.80
2018-09-27T13:15:24.434Z,1.80
2018-09-27T13:17:54.536Z,1.80
2018-09-27T13:20:24.394Z,2.20
2018-09-27T13:22:54.238Z,2.20
2018-09-27T13:25:24.107Z,1.97
2018-09-27T13:27:54.180Z,1.97
2018-09-27T13:30:24.240Z,2.63
2018-09-27T13:32:54.323Z,2.10
2018-09-27T13:35:24.387Z,2.10
2018-09-27T13:37:54.400Z,1.83
2018-09-27T13:40:24.490Z,1.83
2018-09-27T13:42:54.433Z,2.33
2018-09-27T13:45:24.486Z,2.27
2018-09-27T13:47:54.500Z,16.60
2018-09-27T13:50:24.494Z,2.27
2018-09-27T13:52:54.391Z,2.50
2018-09-27T13:55:24.387Z,2.10
2018-09-27T13:57:54.326Z,2.90
2018-09-27T14:00:24.114Z,2.70
2018-09-27T14:02:53.922Z,2.13
2018-09-27T14:05:23.908Z,1.83
2018-09-27T14:07:53.812Z,2.70
2018-09-27T14:10:23.712Z,2.03
2018-09-27T14:12:53.553Z,1.90
2018-09-27T14:15:23.478Z,2.10
2018-09-27T14:17:53.644Z,2.10
2018-09-27T14:20:23.422Z,2.13
2018-09-27T14:22:53.344Z,2.87
2018-09-27T14:25:23.443Z,2.17
2018-09-27T14:27:53.563Z,2.33
2018-09-27T14:30:23.654Z,2.57
2018-09-27T14:32:53.761Z,3.60
2018-09-27T14:35:23.911Z,2.67
2018-09-27T14:37:54.033Z,3.00
2018-09-27T14:40:23.829Z,2.30
2018-09-27T14:42:53.658Z,2.47
2018-09-27T14:45:23.792Z,2.13
2018-09-27T14:47:53.860Z,2.37
2018-09-27T14:50:24.164Z,2.60
2018-09-27T14:52:54.444Z,2.17
2018-09-27T14:55:24.538Z,2.73
2018-09-27T14:57:54.746Z,2.27
2018-09-27T15:00:24.577Z,2.27
2018-09-27T15:02:54.504Z,2.20
2018-09-27T15:05:24.380Z,2.40
2018-09-27T15:07:54.302Z,2.07
2018-09-27T15:10:24.429Z,2.60
2018-09-27T15:12:54.371Z,2.03
2018-09-27T15:15:24.420Z,2.80
2018-09-27T15:17:54.636Z,2.43
2018-09-27T15:20:24.489Z,3.50
2018-09-27T15:22:54.412Z,3.90
2018-09-27T15:25:24.600Z,3.13
2018-09-27T15:27:54.625Z,6.97
2018-09-27T15:30:24.835Z,8.43
2018-09-27T15:32:54.919Z,4.27
2018-09-27T15:35:26.586Z,11.47
2018-09-27T15:37:56.743Z,6.53
2018-09-27T15:40:26.730Z,4.30
2018-09-27T15:42:56.781Z,8.20
2018-09-27T15:45:26.951Z,7.23
2018-09-27T15:47:57.024Z,4.33
2018-09-27T15:50:27.353Z,3.93
2018-09-27T15:52:57.284Z,3.70
2018-09-27T15:55:27.539Z,3.43
2018-09-27T15:57:57.597Z,3.83
2018-09-27T16:00:27.538Z,42.23
2018-09-27T16:02:57.368Z,12.50
2018-09-27T16:05:27.420Z,6.70
2018-09-27T16:07:57.353Z,5.37
2018-09-27T16:10:27.921Z,5.00
2018-09-27T16:12:58.311Z,3.90
2018-09-27T16:15:29.802Z,4.70
2018-09-27T16:18:01.140Z,4.20
2018-09-27T16:20:31.878Z,4.97
2018-09-27T16:23:02.032Z,5.60
2018-09-27T16:25:33.868Z,4.57
2018-09-27T16:28:05.966Z,3.93
2018-09-27T16:30:38.320Z,5.47
2018-09-27T16:33:10.440Z,5.00
2018-09-27T16:35:42.928Z,3.80
2018-09-27T16:38:15.238Z,4.50
2018-09-27T16:40:47.163Z,6.47
2018-09-27T16:43:19.871Z,5.97
2018-09-27T16:45:51.934Z,5.40
2018-09-27T16:48:23.743Z,5.23
2018-09-27T16:50:53.946Z,6.80
2018-09-27T16:53:24.440Z,5.80
2018-09-27T16:55:55.219Z,5.40
2018-09-27T16:58:25.750Z,6.07
2018-09-27T17:00:56.070Z,6.08
2018-09-27T17:03:28.130Z,6.33
2018-09-27T17:05:59.264Z,5.93
2018-09-27T17:08:29.887Z,5.70
2018-09-27T17:11:00.557Z,6.30
2018-09-27T17:13:30.742Z,5.80
2018-09-27T17:16:01.511Z,5.27
2018-09-27T17:18:32.893Z,6.07
2018-09-27T17:21:03.993Z,6.37
2018-09-27T17:23:34.914Z,5.23
2018-09-27T17:26:06.801Z,5.30
2018-09-27T17:28:37.672Z,5.20
2018-09-27T17:31:08.380Z,4.93
2018-09-27T17:33:39.336Z,4.73
2018-09-27T17:36:10.090Z,4.63
2018-09-27T17:38:40.670Z,4.43
2018-09-27T17:41:11.235Z,5.17
2018-09-27T17:43:41.848Z,5.50
2018-09-27T17:46:12.215Z,5.03
2018-09-27T17:48:42.736Z,5.43
2018-09-27T17:51:12.838Z,4.97
2018-09-27T17:53:43.033Z,5.27
2018-09-27T17:56:13.342Z,5.23
2018-09-27T17:58:45.360Z,5.50
2018-09-27T18:01:15.613Z,5.67
2018-09-27T18:03:45.914Z,5.57
2018-09-27T18:06:16.232Z,8.87
2018-09-27T18:08:46.465Z,7.17
2018-09-27T18:11:16.901Z,6.90
2018-09-27T18:13:47.053Z,8.43
2018-09-27T18:16:18.379Z,5.97
2018-09-27T18:18:48.701Z,5.70
2018-09-27T18:21:18.883Z,5.73
2018-09-27T18:23:49.028Z,4.93
2018-09-27T18:26:19.348Z,6.13
2018-09-27T18:28:50.428Z,5.90
2018-09-27T18:31:20.713Z,7.43
2018-09-27T18:33:50.894Z,7.00
2018-09-27T18:36:21.644Z,6.33
2018-09-27T18:38:51.955Z,6.57
2018-09-27T18:41:23.119Z,7.27
2018-09-27T18:43:53.612Z,5.93
2018-09-27T18:46:23.894Z,6.00
2018-09-27T18:48:54.343Z,6.47
2018-09-27T18:51:24.519Z,6.07
2018-09-27T18:53:54.676Z,6.87
2018-09-27T18:56:25.002Z,5.83
2018-09-27T18:58:55.268Z,5.43
2018-09-27T19:01:25.685Z,5.07
2018-09-27T19:03:55.867Z,6.07
2018-09-27T19:06:26.089Z,6.03
2018-09-27T19:08:56.184Z,5.90
2018-09-27T19:11:26.305Z,5.47
2018-09-27T19:13:57.267Z,6.17
2018-09-27T19:16:27.769Z,5.13
2018-09-27T19:18:58.325Z,5.07
2018-09-27T19:21:29.363Z,5.80
2018-09-27T19:23:59.967Z,5.87
2018-09-27T19:26:30.182Z,5.67
2018-09-27T19:29:00.886Z,5.53
2018-09-27T19:31:31.112Z,5.87
2018-09-27T19:34:01.225Z,5.60
2018-09-27T19:36:31.445Z,5.50
2018-09-27T19:39:03.160Z,5.60
2018-09-27T19:41:34.805Z,4.83
2018-09-27T19:44:06.170Z,6.33
2018-09-27T19:46:38.123Z,5.00
2018-09-27T19:49:09.951Z,4.87
2018-09-27T19:51:42.888Z,4.77
2018-09-27T19:54:15.240Z,4.87
2018-09-27T19:56:47.768Z,6.10
2018-09-27T19:59:20.629Z,4.93
2018-09-27T20:01:52.731Z,5.90
2018-09-27T20:04:27.025Z,6.20
2018-09-27T20:06:58.479Z,5.27
2018-09-27T20:09:30.963Z,5.63
2018-09-27T20:12:03.274Z,5.53
2018-09-27T20:14:35.666Z,5.77
2018-09-27T20:17:08.149Z,5.70
2018-09-27T20:19:40.224Z,5.83
2018-09-27T20:22:12.616Z,5.40
2018-09-27T20:24:44.612Z,4.73
2018-09-27T20:27:16.976Z,4.40
2018-09-27T20:29:49.189Z,4.53
2018-09-27T20:32:21.279Z,4.97
2018-09-27T20:34:52.384Z,4.50
2018-09-27T20:37:25.066Z,5.47
2018-09-27T20:39:58.131Z,5.50
2018-09-27T20:42:31.103Z,4.90
2018-09-27T20:45:05.262Z,4.67
2018-09-27T20:47:48.234Z,4.93
2018-09-27T20:50:21.554Z,4.67
2018-09-27T20:52:54.591Z,4.57
2018-09-27T20:55:27.424Z,4.43
2018-09-27T20:58:01.808Z,4.60
2018-09-27T21:00:33.573Z,5.30
2018-09-27T21:03:04.794Z,5.20
2018-09-27T21:05:36.717Z,5.10
2018-09-27T21:08:08.441Z,4.67
2018-09-27T21:10:39.614Z,5.13
2018-09-27T21:13:11.097Z,4.63
2018-09-27T21:15:42.489Z,5.67
2018-09-27T21:18:13.849Z,4.93
2018-09-27T21:20:45.691Z,4.20
2018-09-27T21:23:16.557Z,5.13
2018-09-27T21:25:47.865Z,5.03
2018-09-27T21:28:19.344Z,4.53
2018-09-27T21:30:50.547Z,4.73
2018-09-27T21:33:21.601Z,4.80
2018-09-27T21:35:52.865Z,4.60
2018-09-27T21:38:24.245Z,4.70
2018-09-27T21:40:55.404Z,4.43
2018-09-27T21:43:26.345Z,4.67
2018-09-27T21:45:57.703Z,4.33
2018-09-27T21:48:28.671Z,4.10
2018-09-27T21:50:59.538Z,4.53
2018-09-27T21:53:31.038Z,4.30
2018-09-27T21:56:02.321Z,4.63
2018-09-27T21:58:32.810Z,4.00
2018-09-27T22:01:04.115Z,4.40
2018-09-27T22:03:35.367Z,4.67
2018-09-27T22:06:07.116Z,4.10
2018-09-27T22:08:38.654Z,4.13
2018-09-27T22:11:09.947Z,4.63
2018-09-27T22:13:41.099Z,4.40
2018-09-27T22:16:12.487Z,4.37
2018-09-27T22:18:44.457Z,4.10
2018-09-27T22:21:16.063Z,4.80
2018-09-27T22:23:47.379Z,4.07
2018-09-27T22:26:19.170Z,4.50
2018-09-27T22:28:50.231Z,5.00
2018-09-27T22:31:21.823Z,4.53
2018-09-27T22:33:52.943Z,5.00
2018-09-27T22:36:25.175Z,4.33
2018-09-27T22:38:56.401Z,5.97
2018-09-27T22:41:27.799Z,5.80
2018-09-27T22:43:58.675Z,8.00
2018-09-27T22:46:30.398Z,9.33
2018-09-27T22:49:02.085Z,10.67
2018-09-27T22:51:34.593Z,9.53
2018-09-27T22:54:06.105Z,8.20
2018-09-27T22:56:37.441Z,8.43
2018-09-27T22:59:07.976Z,10.30
2018-09-27T23:01:38.990Z,10.10
2018-09-27T23:04:10.141Z,11.33
2018-09-27T23:06:41.427Z,10.37
2018-09-27T23:09:12.632Z,13.13
2018-09-27T23:11:43.735Z,14.80
2018-09-27T23:14:15.577Z,14.80
2018-09-27T23:16:46.701Z,14.03
2018-09-27T23:19:17.795Z,13.23
2018-09-27T23:21:49.138Z,15.53
2018-09-27T23:24:20.522Z,14.50
2018-09-27T23:26:51.587Z,18.00
2018-09-27T23:29:23.291Z,19.30
2018-09-27T23:31:54.174Z,19.10
2018-09-27T23:34:25.908Z,15.77
2018-09-27T23:36:56.905Z,15.33
2018-09-27T23:39:28.237Z,12.50
2018-09-27T23:42:00.105Z,11.83
2018-09-27T23:44:31.582Z,11.50
2018-09-27T23:47:01.862Z,9.47
2018-09-27T23:49:33.519Z,9.47
2018-09-27T23:52:05.255Z,10.07
2018-09-27T23:54:35.844Z,10.07
2018-09-27T23:57:07.446Z,9.07
2018-09-27T23:59:37.972Z,9.73
